sensor_id;sensor_type;location;lat;lon;timestamp;pressure;altitude;pressure_sealevel;temperature
68012;BMP180;54794;48.348;7.878;2023-04-24T00:01:57;98106.00;;;13.20
68012;BMP180;54794;48.348;7.878;2023-04-24T00:04:25;98113.00;;;13.30
68012;BMP180;54794;48.348;7.878;2023-04-24T00:06:55;98106.00;;;13.10
68012;BMP180;54794;48.348;7.878;2023-04-24T00:09:24;98105.00;;;13.20
68012;BMP180;54794;48.348;7.878;2023-04-24T00:11:53;98119.00;;;13.00
68012;BMP180;54794;48.348;7.878;2023-04-24T00:14:27;98117.00;;;13.10
68012;BMP180;54794;48.348;7.878;2023-04-24T00:16:57;98113.00;;;13.20
68012;BMP180;54794;48.348;7.878;2023-04-24T00:19:29;98117.00;;;13.10
68012;BMP180;54794;48.348;7.878;2023-04-24T00:22:03;98109.00;;;13.20
68012;BMP180;54794;48.348;7.878;2023-04-24T00:24:30;98115.00;;;13.10
68012;BMP180;54794;48.348;7.878;2023-04-24T00:27:07;98117.00;;;13.10
68012;BMP180;54794;48.348;7.878;2023-04-24T00:29:36;98122.00;;;13.10
68012;BMP180;54794;48.348;7.878;2023-04-24T00:32:06;98114.00;;;13.00
68012;BMP180;54794;48.348;7.878;2023-04-24T00:34:33;98115.00;;;13.10
68012;BMP180;54794;48.348;7.878;2023-04-24T00:37:04;98114.00;;;13.20
68012;BMP180;54794;48.348;7.878;2023-04-24T00:39:32;98123.00;;;13.30
68012;BMP180;54794;48.348;7.878;2023-04-24T00:42:02;98116.00;;;13.10
68012;BMP180;54794;48.348;7.878;2023-04-24T00:44:29;98113.00;;;13.10
68012;BMP180;54794;48.348;7.878;2023-04-24T00:46:59;98113.00;;;13.10
68012;BMP180;54794;48.348;7.878;2023-04-24T00:49:33;98119.00;;;13.30
68012;BMP180;54794;48.348;7.878;2023-04-24T00:52:00;98117.00;;;13.30
68012;BMP180;54794;48.348;7.878;2023-04-24T00:54:27;98115.00;;;13.30
68012;BMP180;54794;48.348;7.878;2023-04-24T00:56:54;98108.00;;;13.10
68012;BMP180;54794;48.348;7.878;2023-04-24T00:59:24;98127.00;;;13.20
68012;BMP180;54794;48.348;7.878;2023-04-24T01:01:51;98123.00;;;13.00
68012;BMP180;54794;48.348;7.878;2023-04-24T01:04:25;98109.00;;;13.00
68012;BMP180;54794;48.348;7.878;2023-04-24T01:06:56;98106.00;;;13.10
68012;BMP180;54794;48.348;7.878;2023-04-24T01:09:27;98112.00;;;12.90
68012;BMP180;54794;48.348;7.878;2023-04-24T01:11:54;98123.00;;;12.90
68012;BMP180;54794;48.348;7.878;2023-04-24T01:14:24;98124.00;;;13.10
68012;BMP180;54794;48.348;7.878;2023-04-24T01:16:59;98125.00;;;13.20
68012;BMP180;54794;48.348;7.878;2023-04-24T01:19:36;98120.00;;;13.10
68012;BMP180;54794;48.348;7.878;2023-04-24T01:22:13;98114.00;;;13.10
68012;BMP180;54794;48.348;7.878;2023-04-24T01:24:42;98104.00;;;13.20
68012;BMP180;54794;48.348;7.878;2023-04-24T01:27:18;98110.00;;;13.10
68012;BMP180;54794;48.348;7.878;2023-04-24T01:29:50;98106.00;;;13.10
68012;BMP180;54794;48.348;7.878;2023-04-24T01:32:19;98107.00;;;13.00
68012;BMP180;54794;48.348;7.878;2023-04-24T01:34:56;98105.00;;;13.10
68012;BMP180;54794;48.348;7.878;2023-04-24T01:37:23;98113.00;;;13.00
68012;BMP180;54794;48.348;7.878;2023-04-24T01:39:53;98100.00;;;13.10
68012;BMP180;54794;48.348;7.878;2023-04-24T01:42:20;98105.00;;;13.10
68012;BMP180;54794;48.348;7.878;2023-04-24T01:44:53;98107.00;;;13.00
68012;BMP180;54794;48.348;7.878;2023-04-24T01:47:21;98111.00;;;13.10
68012;BMP180;54794;48.348;7.878;2023-04-24T01:49:49;98104.00;;;13.10
68012;BMP180;54794;48.348;7.878;2023-04-24T01:52:17;98104.00;;;13.20
68012;BMP180;54794;48.348;7.878;2023-04-24T01:54:45;98101.00;;;13.00
68012;BMP180;54794;48.348;7.878;2023-04-24T01:57:13;98092.00;;;13.10
68012;BMP180;54794;48.348;7.878;2023-04-24T01:59:42;98100.00;;;13.10
68012;BMP180;54794;48.348;7.878;2023-04-24T02:02:10;98105.00;;;13.00
68012;BMP180;54794;48.348;7.878;2023-04-24T02:04:42;98108.00;;;13.00
68012;BMP180;54794;48.348;7.878;2023-04-24T02:07:09;98105.00;;;13.10
68012;BMP180;54794;48.348;7.878;2023-04-24T02:09:38;98103.00;;;12.90
68012;BMP180;54794;48.348;7.878;2023-04-24T02:12:11;98109.00;;;12.90
68012;BMP180;54794;48.348;7.878;2023-04-24T02:14:38;98103.00;;;13.10
68012;BMP180;54794;48.348;7.878;2023-04-24T02:17:11;98106.00;;;13.10
68012;BMP180;54794;48.348;7.878;2023-04-24T02:19:42;98103.00;;;13.00
68012;BMP180;54794;48.348;7.878;2023-04-24T02:22:09;98109.00;;;12.80
68012;BMP180;54794;48.348;7.878;2023-04-24T02:24:39;98104.00;;;12.90
68012;BMP180;54794;48.348;7.878;2023-04-24T02:27:06;98115.00;;;12.90
68012;BMP180;54794;48.348;7.878;2023-04-24T02:29:33;98115.00;;;13.00
68012;BMP180;54794;48.348;7.878;2023-04-24T02:32:02;98112.00;;;13.00
68012;BMP180;54794;48.348;7.878;2023-04-24T02:34:33;98118.00;;;12.80
68012;BMP180;54794;48.348;7.878;2023-04-24T02:37:00;98118.00;;;12.80
68012;BMP180;54794;48.348;7.878;2023-04-24T02:39:28;98125.00;;;12.80
68012;BMP180;54794;48.348;7.878;2023-04-24T02:42:00;98126.00;;;12.80
68012;BMP180;54794;48.348;7.878;2023-04-24T02:44:33;98128.00;;;12.80
68012;BMP180;54794;48.348;7.878;2023-04-24T02:47:02;98129.00;;;12.80
68012;BMP180;54794;48.348;7.878;2023-04-24T02:49:30;98115.00;;;12.90
68012;BMP180;54794;48.348;7.878;2023-04-24T02:52:02;98139.00;;;13.00
68012;BMP180;54794;48.348;7.878;2023-04-24T02:54:29;98141.00;;;13.00
68012;BMP180;54794;48.348;7.878;2023-04-24T02:57:01;98160.00;;;12.50
68012;BMP180;54794;48.348;7.878;2023-04-24T02:59:28;98159.00;;;12.40
68012;BMP180;54794;48.348;7.878;2023-04-24T03:01:55;98164.00;;;12.40
68012;BMP180;54794;48.348;7.878;2023-04-24T03:04:26;98186.00;;;12.50
68012;BMP180;54794;48.348;7.878;2023-04-24T03:06:54;98184.00;;;12.50
68012;BMP180;54794;48.348;7.878;2023-04-24T03:09:24;98163.00;;;12.70
68012;BMP180;54794;48.348;7.878;2023-04-24T03:11:51;98170.00;;;12.40
68012;BMP180;54794;48.348;7.878;2023-04-24T03:14:18;98178.00;;;12.30
68012;BMP180;54794;48.348;7.878;2023-04-24T03:16:50;98165.00;;;12.50
68012;BMP180;54794;48.348;7.878;2023-04-24T03:19:47;98161.00;;;12.80
68012;BMP180;54794;48.348;7.878;2023-04-24T03:22:23;98152.00;;;12.90
68012;BMP180;54794;48.348;7.878;2023-04-24T03:25:18;98161.00;;;12.60
68012;BMP180;54794;48.348;7.878;2023-04-24T03:27:45;98160.00;;;12.70
68012;BMP180;54794;48.348;7.878;2023-04-24T03:30:17;98164.00;;;12.80
68012;BMP180;54794;48.348;7.878;2023-04-24T03:32:44;98173.00;;;12.50
68012;BMP180;54794;48.348;7.878;2023-04-24T03:35:11;98165.00;;;12.80
68012;BMP180;54794;48.348;7.878;2023-04-24T03:37:42;98173.00;;;12.80
68012;BMP180;54794;48.348;7.878;2023-04-24T03:40:11;98167.00;;;12.90
68012;BMP180;54794;48.348;7.878;2023-04-24T03:42:38;98174.00;;;12.80
68012;BMP180;54794;48.348;7.878;2023-04-24T03:45:13;98180.00;;;13.00
68012;BMP180;54794;48.348;7.878;2023-04-24T03:47:40;98187.00;;;13.00
68012;BMP180;54794;48.348;7.878;2023-04-24T03:50:07;98189.00;;;12.90
68012;BMP180;54794;48.348;7.878;2023-04-24T03:52:38;98187.00;;;12.90
68012;BMP180;54794;48.348;7.878;2023-04-24T03:55:06;98188.00;;;12.80
68012;BMP180;54794;48.348;7.878;2023-04-24T03:57:36;98184.00;;;12.60
68012;BMP180;54794;48.348;7.878;2023-04-24T04:00:07;98204.00;;;12.80
68012;BMP180;54794;48.348;7.878;2023-04-24T04:02:34;98200.00;;;12.90
68012;BMP180;54794;48.348;7.878;2023-04-24T04:05:04;98203.00;;;12.90
68012;BMP180;54794;48.348;7.878;2023-04-24T04:07:31;98203.00;;;12.80
68012;BMP180;54794;48.348;7.878;2023-04-24T04:10:00;98208.00;;;12.80
68012;BMP180;54794;48.348;7.878;2023-04-24T04:12:30;98212.00;;;12.60
68012;BMP180;54794;48.348;7.878;2023-04-24T04:15:00;98220.00;;;12.70
68012;BMP180;54794;48.348;7.878;2023-04-24T04:17:27;98218.00;;;12.50
68012;BMP180;54794;48.348;7.878;2023-04-24T04:19:54;98232.00;;;12.40
68012;BMP180;54794;48.348;7.878;2023-04-24T04:22:28;98233.00;;;12.30
68012;BMP180;54794;48.348;7.878;2023-04-24T04:24:55;98235.00;;;12.50
68012;BMP180;54794;48.348;7.878;2023-04-24T04:27:25;98253.00;;;12.30
68012;BMP180;54794;48.348;7.878;2023-04-24T04:29:56;98247.00;;;12.40
68012;BMP180;54794;48.348;7.878;2023-04-24T04:32:31;98250.00;;;12.50
68012;BMP180;54794;48.348;7.878;2023-04-24T04:35:04;98245.00;;;12.60
68012;BMP180;54794;48.348;7.878;2023-04-24T04:37:35;98256.00;;;12.70
68012;BMP180;54794;48.348;7.878;2023-04-24T04:40:06;98254.00;;;12.30
68012;BMP180;54794;48.348;7.878;2023-04-24T04:42:33;98251.00;;;12.60
68012;BMP180;54794;48.348;7.878;2023-04-24T04:45:07;98261.00;;;12.60
68012;BMP180;54794;48.348;7.878;2023-04-24T04:47:38;98262.00;;;12.60
68012;BMP180;54794;48.348;7.878;2023-04-24T04:50:09;98263.00;;;12.30
68012;BMP180;54794;48.348;7.878;2023-04-24T04:52:43;98267.00;;;12.30
68012;BMP180;54794;48.348;7.878;2023-04-24T04:55:10;98268.00;;;12.40
68012;BMP180;54794;48.348;7.878;2023-04-24T04:57:37;98281.00;;;12.40
68012;BMP180;54794;48.348;7.878;2023-04-24T05:00:05;98288.00;;;12.40
68012;BMP180;54794;48.348;7.878;2023-04-24T05:02:33;98286.00;;;12.50
68012;BMP180;54794;48.348;7.878;2023-04-24T05:05:00;98286.00;;;12.60
68012;BMP180;54794;48.348;7.878;2023-04-24T05:07:30;98284.00;;;12.60
68012;BMP180;54794;48.348;7.878;2023-04-24T05:10:14;98289.00;;;12.40
68012;BMP180;54794;48.348;7.878;2023-04-24T05:12:41;98297.00;;;12.60
68012;BMP180;54794;48.348;7.878;2023-04-24T05:15:11;98293.00;;;12.60
68012;BMP180;54794;48.348;7.878;2023-04-24T05:17:38;98302.00;;;12.40
68012;BMP180;54794;48.348;7.878;2023-04-24T05:20:07;98296.00;;;12.50
68012;BMP180;54794;48.348;7.878;2023-04-24T05:22:35;98298.00;;;12.40
68012;BMP180;54794;48.348;7.878;2023-04-24T05:25:02;98304.00;;;12.50
68012;BMP180;54794;48.348;7.878;2023-04-24T05:27:29;98300.00;;;12.10
68012;BMP180;54794;48.348;7.878;2023-04-24T05:29:56;98306.00;;;12.30
68012;BMP180;54794;48.348;7.878;2023-04-24T05:32:23;98315.00;;;12.20
68012;BMP180;54794;48.348;7.878;2023-04-24T05:34:50;98309.00;;;12.20
68012;BMP180;54794;48.348;7.878;2023-04-24T05:37:17;98318.00;;;12.30
68012;BMP180;54794;48.348;7.878;2023-04-24T05:39:44;98321.00;;;12.40
68012;BMP180;54794;48.348;7.878;2023-04-24T05:42:15;98322.00;;;12.30
68012;BMP180;54794;48.348;7.878;2023-04-24T05:44:42;98358.00;;;12.10
68012;BMP180;54794;48.348;7.878;2023-04-24T05:47:09;98356.00;;;12.10
68012;BMP180;54794;48.348;7.878;2023-04-24T05:49:37;98367.00;;;12.30
68012;BMP180;54794;48.348;7.878;2023-04-24T05:52:07;98384.00;;;11.70
68012;BMP180;54794;48.348;7.878;2023-04-24T05:54:35;98373.00;;;11.60
68012;BMP180;54794;48.348;7.878;2023-04-24T05:57:05;98355.00;;;11.50
68012;BMP180;54794;48.348;7.878;2023-04-24T05:59:37;98363.00;;;11.80
68012;BMP180;54794;48.348;7.878;2023-04-24T06:02:08;98376.00;;;11.60
68012;BMP180;54794;48.348;7.878;2023-04-24T06:04:35;98374.00;;;11.70
68012;BMP180;54794;48.348;7.878;2023-04-24T06:07:02;98377.00;;;12.10
68012;BMP180;54794;48.348;7.878;2023-04-24T06:09:29;98381.00;;;12.20
68012;BMP180;54794;48.348;7.878;2023-04-24T06:11:56;98386.00;;;12.10
68012;BMP180;54794;48.348;7.878;2023-04-24T06:14:23;98383.00;;;11.80
68012;BMP180;54794;48.348;7.878;2023-04-24T06:16:50;98385.00;;;11.90
68012;BMP180;54794;48.348;7.878;2023-04-24T06:19:17;98395.00;;;11.70
68012;BMP180;54794;48.348;7.878;2023-04-24T06:21:44;98389.00;;;11.80
68012;BMP180;54794;48.348;7.878;2023-04-24T06:24:14;98406.00;;;12.10
68012;BMP180;54794;48.348;7.878;2023-04-24T06:26:43;98402.00;;;12.10
68012;BMP180;54794;48.348;7.878;2023-04-24T06:29:10;98396.00;;;12.00
68012;BMP180;54794;48.348;7.878;2023-04-24T06:31:37;98409.00;;;12.10
68012;BMP180;54794;48.348;7.878;2023-04-24T06:34:04;98408.00;;;12.40
68012;BMP180;54794;48.348;7.878;2023-04-24T06:36:31;98399.00;;;12.40
68012;BMP180;54794;48.348;7.878;2023-04-24T06:39:01;98411.00;;;12.30
68012;BMP180;54794;48.348;7.878;2023-04-24T06:41:28;98413.00;;;12.40
68012;BMP180;54794;48.348;7.878;2023-04-24T06:43:56;98409.00;;;12.70
68012;BMP180;54794;48.348;7.878;2023-04-24T06:46:22;98422.00;;;12.60
68012;BMP180;54794;48.348;7.878;2023-04-24T06:48:53;98430.00;;;12.60
68012;BMP180;54794;48.348;7.878;2023-04-24T06:51:25;98426.00;;;12.80
68012;BMP180;54794;48.348;7.878;2023-04-24T06:53:53;98438.00;;;12.70
68012;BMP180;54794;48.348;7.878;2023-04-24T06:56:21;98439.00;;;12.80
68012;BMP180;54794;48.348;7.878;2023-04-24T06:58:49;98427.00;;;12.30
68012;BMP180;54794;48.348;7.878;2023-04-24T07:01:16;98419.00;;;12.80
68012;BMP180;54794;48.348;7.878;2023-04-24T07:03:46;98430.00;;;13.00
68012;BMP180;54794;48.348;7.878;2023-04-24T07:06:13;98432.00;;;12.70
68012;BMP180;54794;48.348;7.878;2023-04-24T07:08:41;98430.00;;;13.00
68012;BMP180;54794;48.348;7.878;2023-04-24T07:11:09;98431.00;;;13.40
68012;BMP180;54794;48.348;7.878;2023-04-24T07:13:35;98432.00;;;12.60
68012;BMP180;54794;48.348;7.878;2023-04-24T07:16:02;98434.00;;;12.70
68012;BMP180;54794;48.348;7.878;2023-04-24T07:18:29;98425.00;;;12.90
68012;BMP180;54794;48.348;7.878;2023-04-24T07:20:57;98440.00;;;12.90
68012;BMP180;54794;48.348;7.878;2023-04-24T07:23:24;98450.00;;;12.80
68012;BMP180;54794;48.348;7.878;2023-04-24T07:25:51;98445.00;;;12.40
68012;BMP180;54794;48.348;7.878;2023-04-24T07:28:18;98441.00;;;12.40
68012;BMP180;54794;48.348;7.878;2023-04-24T07:30:45;98459.00;;;12.20
68012;BMP180;54794;48.348;7.878;2023-04-24T07:33:12;98450.00;;;12.10
68012;BMP180;54794;48.348;7.878;2023-04-24T07:35:40;98461.00;;;12.10
68012;BMP180;54794;48.348;7.878;2023-04-24T07:38:07;98462.00;;;12.10
68012;BMP180;54794;48.348;7.878;2023-04-24T07:40:36;98454.00;;;12.00
68012;BMP180;54794;48.348;7.878;2023-04-24T07:43:03;98475.00;;;12.00
68012;BMP180;54794;48.348;7.878;2023-04-24T07:45:35;98470.00;;;11.90
68012;BMP180;54794;48.348;7.878;2023-04-24T07:48:04;98470.00;;;11.90
68012;BMP180;54794;48.348;7.878;2023-04-24T07:50:35;98477.00;;;11.90
68012;BMP180;54794;48.348;7.878;2023-04-24T07:53:02;98474.00;;;12.00
68012;BMP180;54794;48.348;7.878;2023-04-24T07:55:29;98485.00;;;12.40
68012;BMP180;54794;48.348;7.878;2023-04-24T07:57:56;98487.00;;;11.90
68012;BMP180;54794;48.348;7.878;2023-04-24T08:00:23;98496.00;;;11.80
68012;BMP180;54794;48.348;7.878;2023-04-24T08:02:50;98504.00;;;11.80
68012;BMP180;54794;48.348;7.878;2023-04-24T08:05:20;98502.00;;;12.30
68012;BMP180;54794;48.348;7.878;2023-04-24T08:07:47;98505.00;;;12.20
68012;BMP180;54794;48.348;7.878;2023-04-24T08:10:16;98511.00;;;12.10
68012;BMP180;54794;48.348;7.878;2023-04-24T08:12:43;98515.00;;;12.30
68012;BMP180;54794;48.348;7.878;2023-04-24T08:15:10;98510.00;;;12.50
68012;BMP180;54794;48.348;7.878;2023-04-24T08:17:37;98509.00;;;13.00
68012;BMP180;54794;48.348;7.878;2023-04-24T08:20:05;98520.00;;;13.00
68012;BMP180;54794;48.348;7.878;2023-04-24T08:22:32;98511.00;;;12.50
68012;BMP180;54794;48.348;7.878;2023-04-24T08:25:00;98512.00;;;12.20
68012;BMP180;54794;48.348;7.878;2023-04-24T08:27:27;98518.00;;;12.70
68012;BMP180;54794;48.348;7.878;2023-04-24T08:29:54;98510.00;;;13.00
68012;BMP180;54794;48.348;7.878;2023-04-24T08:32:21;98521.00;;;13.20
68012;BMP180;54794;48.348;7.878;2023-04-24T08:34:59;98509.00;;;13.00
68012;BMP180;54794;48.348;7.878;2023-04-24T08:37:27;98512.00;;;13.60
68012;BMP180;54794;48.348;7.878;2023-04-24T08:39:54;98515.00;;;13.30
68012;BMP180;54794;48.348;7.878;2023-04-24T08:42:22;98509.00;;;13.30
68012;BMP180;54794;48.348;7.878;2023-04-24T08:44:56;98519.00;;;13.30
68012;BMP180;54794;48.348;7.878;2023-04-24T08:47:27;98513.00;;;13.60
68012;BMP180;54794;48.348;7.878;2023-04-24T08:49:56;98522.00;;;13.40
68012;BMP180;54794;48.348;7.878;2023-04-24T08:52:25;98519.00;;;13.40
68012;BMP180;54794;48.348;7.878;2023-04-24T08:54:53;98526.00;;;13.50
68012;BMP180;54794;48.348;7.878;2023-04-24T08:57:22;98535.00;;;13.00
68012;BMP180;54794;48.348;7.878;2023-04-24T08:59:49;98538.00;;;12.90
68012;BMP180;54794;48.348;7.878;2023-04-24T09:38:33;98593.00;;;12.40
68012;BMP180;54794;48.348;7.878;2023-04-24T10:02:02;98605.00;;;12.70
68012;BMP180;54794;48.348;7.878;2023-04-24T10:04:30;98605.00;;;12.70
68012;BMP180;54794;48.348;7.878;2023-04-24T10:06:57;98602.00;;;12.40
68012;BMP180;54794;48.348;7.878;2023-04-24T10:09:26;98612.00;;;12.60
68012;BMP180;54794;48.348;7.878;2023-04-24T10:11:54;98617.00;;;12.10
68012;BMP180;54794;48.348;7.878;2023-04-24T10:14:24;98614.00;;;12.30
68012;BMP180;54794;48.348;7.878;2023-04-24T10:16:54;98615.00;;;12.20
68012;BMP180;54794;48.348;7.878;2023-04-24T10:19:26;98615.00;;;12.10
68012;BMP180;54794;48.348;7.878;2023-04-24T10:21:54;98633.00;;;12.20
68012;BMP180;54794;48.348;7.878;2023-04-24T10:24:22;98628.00;;;12.10
68012;BMP180;54794;48.348;7.878;2023-04-24T10:26:49;98636.00;;;12.20
68012;BMP180;54794;48.348;7.878;2023-04-24T10:29:18;98629.00;;;11.90
68012;BMP180;54794;48.348;7.878;2023-04-24T10:31:46;98636.00;;;12.10
68012;BMP180;54794;48.348;7.878;2023-04-24T10:34:16;98643.00;;;12.10
68012;BMP180;54794;48.348;7.878;2023-04-24T10:36:54;98647.00;;;12.20
68012;BMP180;54794;48.348;7.878;2023-04-24T10:39:24;98645.00;;;12.20
68012;BMP180;54794;48.348;7.878;2023-04-24T10:41:54;98652.00;;;12.40
68012;BMP180;54794;48.348;7.878;2023-04-24T10:44:25;98652.00;;;12.20
68012;BMP180;54794;48.348;7.878;2023-04-24T10:46:55;98647.00;;;12.40
68012;BMP180;54794;48.348;7.878;2023-04-24T10:49:31;98655.00;;;12.10
68012;BMP180;54794;48.348;7.878;2023-04-24T10:52:05;98652.00;;;12.30
68012;BMP180;54794;48.348;7.878;2023-04-24T10:54:42;98650.00;;;12.10
68012;BMP180;54794;48.348;7.878;2023-04-24T11:00:09;98652.00;;;12.20
68012;BMP180;54794;48.348;7.878;2023-04-24T11:46:26;98671.00;;;12.60
68012;BMP180;54794;48.348;7.878;2023-04-24T11:48:58;98655.00;;;12.70
68012;BMP180;54794;48.348;7.878;2023-04-24T11:51:29;98668.00;;;12.80
68012;BMP180;54794;48.348;7.878;2023-04-24T11:54:18;98664.00;;;13.00
68012;BMP180;54794;48.348;7.878;2023-04-24T11:56:47;98659.00;;;13.00
68012;BMP180;54794;48.348;7.878;2023-04-24T11:59:23;98658.00;;;13.30
68012;BMP180;54794;48.348;7.878;2023-04-24T12:10:10;98652.00;;;13.30
68012;BMP180;54794;48.348;7.878;2023-04-24T12:45:40;98630.00;;;13.00
68012;BMP180;54794;48.348;7.878;2023-04-24T12:48:11;98630.00;;;12.90
68012;BMP180;54794;48.348;7.878;2023-04-24T12:50:38;98636.00;;;13.30
68012;BMP180;54794;48.348;7.878;2023-04-24T12:53:13;98624.00;;;13.50
68012;BMP180;54794;48.348;7.878;2023-04-24T12:55:42;98629.00;;;13.40
68012;BMP180;54794;48.348;7.878;2023-04-24T12:58:14;98634.00;;;13.60
68012;BMP180;54794;48.348;7.878;2023-04-24T13:01:04;98627.00;;;13.50
68012;BMP180;54794;48.348;7.878;2023-04-24T13:07:30;98629.00;;;13.60
68012;BMP180;54794;48.348;7.878;2023-04-24T13:10:13;98632.00;;;13.40
68012;BMP180;54794;48.348;7.878;2023-04-24T13:12:44;98641.00;;;13.40
68012;BMP180;54794;48.348;7.878;2023-04-24T13:15:12;98636.00;;;13.30
68012;BMP180;54794;48.348;7.878;2023-04-24T13:17:40;98635.00;;;13.30
68012;BMP180;54794;48.348;7.878;2023-04-24T13:20:10;98626.00;;;13.60
68012;BMP180;54794;48.348;7.878;2023-04-24T13:22:37;98620.00;;;13.90
68012;BMP180;54794;48.348;7.878;2023-04-24T13:25:04;98630.00;;;13.80
68012;BMP180;54794;48.348;7.878;2023-04-24T13:27:39;98631.00;;;13.70
68012;BMP180;54794;48.348;7.878;2023-04-24T13:30:07;98627.00;;;13.40
68012;BMP180;54794;48.348;7.878;2023-04-24T13:32:35;98623.00;;;13.60
68012;BMP180;54794;48.348;7.878;2023-04-24T13:35:06;98620.00;;;13.60
68012;BMP180;54794;48.348;7.878;2023-04-24T13:37:35;98615.00;;;13.70
68012;BMP180;54794;48.348;7.878;2023-04-24T13:40:05;98608.00;;;13.80
68012;BMP180;54794;48.348;7.878;2023-04-24T13:42:38;98608.00;;;14.00
68012;BMP180;54794;48.348;7.878;2023-04-24T13:45:16;98615.00;;;13.90
68012;BMP180;54794;48.348;7.878;2023-04-24T13:47:51;98613.00;;;14.10
68012;BMP180;54794;48.348;7.878;2023-04-24T13:50:23;98598.00;;;14.20
68012;BMP180;54794;48.348;7.878;2023-04-24T13:52:50;98601.00;;;14.10
68012;BMP180;54794;48.348;7.878;2023-04-24T13:55:17;98607.00;;;13.90
68012;BMP180;54794;48.348;7.878;2023-04-24T13:57:50;98599.00;;;14.00
68012;BMP180;54794;48.348;7.878;2023-04-24T14:00:33;98598.00;;;14.00
68012;BMP180;54794;48.348;7.878;2023-04-24T14:03:04;98595.00;;;14.10
68012;BMP180;54794;48.348;7.878;2023-04-24T14:05:38;98592.00;;;14.40
68012;BMP180;54794;48.348;7.878;2023-04-24T14:08:08;98601.00;;;14.10
68012;BMP180;54794;48.348;7.878;2023-04-24T14:10:36;98596.00;;;14.30
68012;BMP180;54794;48.348;7.878;2023-04-24T14:13:09;98592.00;;;14.30
68012;BMP180;54794;48.348;7.878;2023-04-24T14:15:45;98582.00;;;14.90
68012;BMP180;54794;48.348;7.878;2023-04-24T14:18:15;98587.00;;;14.80
68012;BMP180;54794;48.348;7.878;2023-04-24T14:20:48;98580.00;;;14.40
68012;BMP180;54794;48.348;7.878;2023-04-24T14:23:29;98572.00;;;14.60
68012;BMP180;54794;48.348;7.878;2023-04-24T14:26:21;98558.00;;;15.90
68012;BMP180;54794;48.348;7.878;2023-04-24T14:28:57;98559.00;;;15.00
68012;BMP180;54794;48.348;7.878;2023-04-24T14:31:43;98550.00;;;15.70
68012;BMP180;54794;48.348;7.878;2023-04-24T14:34:19;98561.00;;;17.20
68012;BMP180;54794;48.348;7.878;2023-04-24T14:36:59;98547.00;;;17.70
68012;BMP180;54794;48.348;7.878;2023-04-24T14:39:31;98557.00;;;17.70
68012;BMP180;54794;48.348;7.878;2023-04-24T14:41:58;98554.00;;;17.40
68012;BMP180;54794;48.348;7.878;2023-04-24T14:44:35;98541.00;;;17.50
68012;BMP180;54794;48.348;7.878;2023-04-24T14:47:02;98550.00;;;16.80
68012;BMP180;54794;48.348;7.878;2023-04-24T14:49:48;98539.00;;;16.30
68012;BMP180;54794;48.348;7.878;2023-04-24T14:52:18;98550.00;;;16.00
68012;BMP180;54794;48.348;7.878;2023-04-24T14:54:45;98547.00;;;16.30
68012;BMP180;54794;48.348;7.878;2023-04-24T14:57:12;98540.00;;;16.10
68012;BMP180;54794;48.348;7.878;2023-04-24T14:59:51;98546.00;;;15.90
68012;BMP180;54794;48.348;7.878;2023-04-24T15:02:18;98543.00;;;15.70
68012;BMP180;54794;48.348;7.878;2023-04-24T15:04:50;98544.00;;;15.90
68012;BMP180;54794;48.348;7.878;2023-04-24T15:07:56;98537.00;;;15.80
68012;BMP180;54794;48.348;7.878;2023-04-24T15:10:26;98538.00;;;16.10
68012;BMP180;54794;48.348;7.878;2023-04-24T15:12:56;98537.00;;;15.90
68012;BMP180;54794;48.348;7.878;2023-04-24T15:15:26;98537.00;;;15.70
68012;BMP180;54794;48.348;7.878;2023-04-24T15:17:57;98543.00;;;15.90
68012;BMP180;54794;48.348;7.878;2023-04-24T15:20:28;98541.00;;;15.90
68012;BMP180;54794;48.348;7.878;2023-04-24T15:23:20;98547.00;;;15.80
68012;BMP180;54794;48.348;7.878;2023-04-24T15:25:53;98530.00;;;15.70
68012;BMP180;54794;48.348;7.878;2023-04-24T15:28:45;98545.00;;;15.90
68012;BMP180;54794;48.348;7.878;2023-04-24T15:31:19;98547.00;;;15.80
68012;BMP180;54794;48.348;7.878;2023-04-24T15:33:49;98540.00;;;16.50
68012;BMP180;54794;48.348;7.878;2023-04-24T15:36:29;98545.00;;;17.30
68012;BMP180;54794;48.348;7.878;2023-04-24T15:38:56;98534.00;;;16.80
68012;BMP180;54794;48.348;7.878;2023-04-24T15:41:26;98525.00;;;15.80
68012;BMP180;54794;48.348;7.878;2023-04-24T15:43:58;98526.00;;;15.60
68012;BMP180;54794;48.348;7.878;2023-04-24T15:46:35;98522.00;;;15.80
68012;BMP180;54794;48.348;7.878;2023-04-24T15:49:02;98531.00;;;16.00
68012;BMP180;54794;48.348;7.878;2023-04-24T15:51:33;98525.00;;;15.70
68012;BMP180;54794;48.348;7.878;2023-04-24T15:54:09;98536.00;;;15.10
68012;BMP180;54794;48.348;7.878;2023-04-24T15:57:14;98526.00;;;15.30
68012;BMP180;54794;48.348;7.878;2023-04-24T16:00:06;98538.00;;;15.10
68012;BMP180;54794;48.348;7.878;2023-04-24T16:02:43;98521.00;;;15.10
68012;BMP180;54794;48.348;7.878;2023-04-24T16:05:12;98526.00;;;15.10
68012;BMP180;54794;48.348;7.878;2023-04-24T16:07:46;98534.00;;;15.10
68012;BMP180;54794;48.348;7.878;2023-04-24T16:10:25;98528.00;;;15.10
68012;BMP180;54794;48.348;7.878;2023-04-24T16:13:01;98540.00;;;15.20
68012;BMP180;54794;48.348;7.878;2023-04-24T16:15:59;98540.00;;;14.90
68012;BMP180;54794;48.348;7.878;2023-04-24T16:18:52;98564.00;;;14.70
68012;BMP180;54794;48.348;7.878;2023-04-24T16:21:20;98558.00;;;14.30
68012;BMP180;54794;48.348;7.878;2023-04-24T16:23:47;98559.00;;;14.30
68012;BMP180;54794;48.348;7.878;2023-04-24T16:26:13;98576.00;;;14.40
68012;BMP180;54794;48.348;7.878;2023-04-24T16:28:41;98577.00;;;14.10
68012;BMP180;54794;48.348;7.878;2023-04-24T16:31:09;98567.00;;;14.50
68012;BMP180;54794;48.348;7.878;2023-04-24T16:33:36;98576.00;;;14.20
68012;BMP180;54794;48.348;7.878;2023-04-24T16:36:20;98568.00;;;14.30
68012;BMP180;54794;48.348;7.878;2023-04-24T16:38:48;98571.00;;;13.80
68012;BMP180;54794;48.348;7.878;2023-04-24T16:41:17;98566.00;;;14.00
68012;BMP180;54794;48.348;7.878;2023-04-24T16:43:47;98558.00;;;13.60
68012;BMP180;54794;48.348;7.878;2023-04-24T16:46:17;98569.00;;;14.00
68012;BMP180;54794;48.348;7.878;2023-04-24T16:48:44;98554.00;;;14.20
68012;BMP180;54794;48.348;7.878;2023-04-24T16:51:26;98567.00;;;14.00
68012;BMP180;54794;48.348;7.878;2023-04-24T16:53:58;98557.00;;;14.00
68012;BMP180;54794;48.348;7.878;2023-04-24T16:56:27;98558.00;;;14.10
68012;BMP180;54794;48.348;7.878;2023-04-24T16:58:56;98568.00;;;13.90